createdAt,value
2022-09-15T00:00:01.209Z,100339.16
2022-09-15T00:02:27.776Z,100344.56
2022-09-15T00:04:54.573Z,100342.16
2022-09-15T00:07:21.051Z,100344.97
2022-09-15T00:09:47.697Z,100349.81
2022-09-15T00:12:14.266Z,100347.59
2022-09-15T00:14:41.308Z,100346.84
2022-09-15T00:17:07.910Z,100335.81
2022-09-15T00:19:34.540Z,100340.22
2022-09-15T00:22:01.688Z,100338.81
2022-09-15T00:24:28.206Z,100342.66
2022-09-15T00:26:55.023Z,100341.63
2022-09-15T00:29:21.721Z,100341.03
2022-09-15T00:31:48.287Z,100345.84
2022-09-15T00:34:14.843Z,100348.84
2022-09-15T00:36:41.507Z,100345.84
2022-09-15T00:39:08.105Z,100340.84
2022-09-15T00:41:34.956Z,100337.03
2022-09-15T00:44:21.998Z,100335.63
2022-09-15T00:47:04.309Z,100337.25
2022-09-15T00:49:40.425Z,100332.63
2022-09-15T00:52:21.094Z,100336.69
2022-09-15T00:54:56.246Z,100337.06
2022-09-15T00:57:48.733Z,100332.25
2022-09-15T01:00:20.843Z,100341.47
2022-09-15T01:02:48.449Z,100354.94
2022-09-15T01:05:18.902Z,100356.34
2022-09-15T01:07:51.648Z,100361.16
2022-09-15T01:10:24.393Z,100352.53
2022-09-15T01:12:52.375Z,100347.91
2022-09-15T01:15:20.077Z,100350.28
2022-09-15T01:17:59.886Z,100354.91
2022-09-15T01:20:55.252Z,100351.50
2022-09-15T01:23:51.872Z,100344.25
2022-09-15T01:26:56.955Z,100350.28
2022-09-15T01:29:44.706Z,100338.84
2022-09-15T01:32:47.980Z,100344.09
2022-09-15T01:35:34.597Z,100333.63
2022-09-15T01:38:06.098Z,100341.25
2022-09-15T01:40:41.729Z,100341.25
2022-09-15T01:43:10.353Z,100339.47
2022-09-15T01:45:38.968Z,100339.47
2022-09-15T01:48:08.755Z,100334.03
2022-09-15T01:50:46.585Z,100344.06
2022-09-15T01:53:17.971Z,100338.03
2022-09-15T01:55:52.984Z,100337.81
2022-09-15T01:58:20.495Z,100337.03
2022-09-15T02:00:59.303Z,100342.06
2022-09-15T02:03:35.208Z,100333.41
2022-09-15T02:06:11.548Z,100341.25
2022-09-15T02:08:56.383Z,100340.44
2022-09-15T02:11:26.644Z,100336.84
2022-09-15T02:14:11.415Z,100340.66
2022-09-15T02:16:42.336Z,100345.06
2022-09-15T02:19:15.000Z,100351.50
2022-09-15T02:22:02.883Z,100347.06
2022-09-15T02:24:35.527Z,100355.94
2022-09-15T02:27:04.313Z,100355.50
2022-09-15T02:29:34.619Z,100343.06
2022-09-15T02:32:06.978Z,100345.88
2022-09-15T02:34:40.334Z,100341.66
2022-09-15T02:37:08.233Z,100350.69
2022-09-15T02:39:39.880Z,100353.53
2022-09-15T02:42:29.776Z,100354.31
2022-09-15T02:44:57.410Z,100355.13
2022-09-15T02:47:25.673Z,100355.31
2022-09-15T02:49:52.843Z,100342.09
2022-09-15T02:52:19.714Z,100341.88
2022-09-15T02:54:46.411Z,100338.25
2022-09-15T02:57:14.257Z,100336.44
2022-09-15T02:59:59.331Z,100341.47
2022-09-15T03:02:26.176Z,100338.66
2022-09-15T03:04:53.027Z,100332.44
2022-09-15T03:07:20.246Z,100338.25
2022-09-15T03:09:47.226Z,100337.25
2022-09-15T03:12:13.780Z,100344.09
2022-09-15T03:14:40.365Z,100337.84
2022-09-15T03:17:06.876Z,100345.66
2022-09-15T03:19:33.386Z,100352.72
2022-09-15T03:22:00.019Z,100356.31
2022-09-15T03:24:26.653Z,100360.56
2022-09-15T03:26:53.484Z,100350.72
2022-09-15T03:29:20.228Z,100354.31
2022-09-15T03:31:46.787Z,100360.56
2022-09-15T03:34:13.297Z,100359.75
2022-09-15T03:36:39.919Z,100361.53
2022-09-15T03:39:06.794Z,100366.97
2022-09-15T03:41:34.525Z,100365.97
2022-09-15T03:44:01.136Z,100357.13
2022-09-15T03:46:27.936Z,100360.56
2022-09-15T03:48:54.572Z,100360.56
2022-09-15T03:51:22.023Z,100354.53
2022-09-15T03:53:48.568Z,100361.53
2022-09-15T03:56:23.947Z,100357.94
2022-09-15T03:58:51.977Z,100370.78
2022-09-15T04:01:19.976Z,100372.59
2022-09-15T04:03:50.880Z,100373.59
2022-09-15T04:06:22.046Z,100378.63
2022-09-15T04:08:53.178Z,100375.78
2022-09-15T04:11:21.154Z,100378.03
2022-09-15T04:13:48.634Z,100371.78
2022-09-15T04:16:18.498Z,100368.38
2022-09-15T04:18:45.414Z,100369.97
2022-09-15T04:21:14.816Z,100373.41
2022-09-15T04:23:42.755Z,100373.41
2022-09-15T04:26:17.423Z,100367.16
2022-09-15T04:28:43.948Z,100383.03
2022-09-15T04:31:12.511Z,100382.22
2022-09-15T04:33:40.644Z,100377.00
2022-09-15T04:36:10.663Z,100372.00
2022-09-15T04:38:37.549Z,100379.59
2022-09-15T04:41:05.176Z,100374.19
2022-09-15T04:43:32.543Z,100372.38
2022-09-15T04:45:59.359Z,100376.81
2022-09-15T04:48:26.546Z,100374.97
2022-09-15T04:50:53.466Z,100372.38
2022-09-15T04:53:20.312Z,100374.19
2022-09-15T04:55:46.837Z,100378.63
2022-09-15T04:58:13.376Z,100376.00
2022-09-15T05:00:43.077Z,100376.59
2022-09-15T05:03:13.998Z,100368.56
2022-09-15T05:05:41.411Z,100376.22
2022-09-15T05:08:08.238Z,100367.56
2022-09-15T05:10:35.036Z,100370.19
2022-09-15T05:13:01.521Z,100372.78
2022-09-15T05:15:28.044Z,100366.53
2022-09-15T05:17:54.571Z,100375.19
2022-09-15T05:20:21.312Z,100369.97
2022-09-15T05:22:47.922Z,100369.78
2022-09-15T05:25:14.484Z,100362.72
2022-09-15T05:27:41.217Z,100365.97
2022-09-15T05:30:44.467Z,100363.13
2022-09-15T05:33:11.284Z,100364.72
2022-09-15T05:35:37.827Z,100361.34
2022-09-15T05:38:04.410Z,100363.72
2022-09-15T05:40:32.950Z,100366.13
2022-09-15T05:42:59.476Z,100361.50
2022-09-15T05:45:28.151Z,100365.53
2022-09-15T05:47:54.635Z,100357.50
2022-09-15T05:50:21.331Z,100362.50
2022-09-15T05:52:51.734Z,100364.91
2022-09-15T05:55:18.479Z,100377.78
2022-09-15T05:57:45.079Z,100383.38
2022-09-15T06:00:12.527Z,100377.78
2022-09-15T06:02:39.262Z,100382.78
2022-09-15T06:05:06.357Z,100382.38
2022-09-15T06:07:32.860Z,100384.38
2022-09-15T06:10:00.646Z,100379.53
2022-09-15T06:12:27.367Z,100373.09
2022-09-15T06:14:56.715Z,100380.31
2022-09-15T06:17:23.349Z,100385.94
2022-09-15T06:19:49.868Z,100390.78
2022-09-15T06:22:17.590Z,100387.53
2022-09-15T06:24:44.208Z,100388.13
2022-09-15T06:27:10.828Z,100387.91
2022-09-15T06:29:37.410Z,100397.97
2022-09-15T06:32:05.179Z,100385.09
2022-09-15T06:34:32.925Z,100392.75
2022-09-15T06:36:59.871Z,100394.75
2022-09-15T06:39:27.089Z,100394.13
2022-09-15T06:42:02.187Z,100395.91
2022-09-15T06:44:29.739Z,100392.28
2022-09-15T06:46:56.430Z,100390.44
2022-09-15T06:49:22.972Z,100402.50
2022-09-15T06:51:56.480Z,100400.84
2022-09-15T06:54:23.438Z,100400.22
2022-09-15T06:56:49.948Z,100413.84
2022-09-15T06:59:16.934Z,100409.59
2022-09-15T07:01:43.541Z,100417.63
2022-09-15T07:04:10.381Z,100418.00
2022-09-15T07:06:39.304Z,100421.81
2022-09-15T07:09:06.373Z,100426.84
2022-09-15T07:11:33.550Z,100433.66
2022-09-15T07:14:00.237Z,100436.66
2022-09-15T07:16:26.871Z,100430.22
2022-09-15T07:18:57.056Z,100439.47
2022-09-15T07:21:24.812Z,100436.41
2022-09-15T07:23:51.709Z,100437.59
2022-09-15T07:26:20.350Z,100433.78
2022-09-15T07:28:50.048Z,100434.13
2022-09-15T07:31:19.373Z,100432.09
2022-09-15T07:33:46.415Z,100426.66
2022-09-15T07:36:13.614Z,100429.44
2022-09-15T07:38:43.102Z,100434.44
2022-09-15T07:41:13.092Z,100441.22
2022-09-15T07:43:40.137Z,100442.19
2022-09-15T07:46:07.105Z,100444.94
2022-09-15T07:48:33.806Z,100446.50
2022-09-15T07:51:00.371Z,100452.09
2022-09-15T07:53:30.499Z,100446.00
2022-09-15T07:55:57.282Z,100449.16
2022-09-15T07:58:25.098Z,100447.44
2022-09-15T08:00:52.220Z,100455.16
2022-09-15T08:03:19.118Z,100447.38
2022-09-15T08:05:46.233Z,100452.31
2022-09-15T08:08:13.350Z,100461.00
2022-09-15T08:10:41.781Z,100449.50
2022-09-15T08:13:08.409Z,100461.06
2022-09-15T08:15:38.749Z,100462.78
2022-09-15T08:18:07.421Z,100469.59
2022-09-15T08:20:33.950Z,100473.78
2022-09-15T08:23:00.732Z,100469.84
2022-09-15T08:25:27.443Z,100477.38
2022-09-15T08:27:55.061Z,100476.41
2022-09-15T08:30:22.681Z,100485.75
2022-09-15T08:32:49.780Z,100488.00
2022-09-15T08:35:17.360Z,100494.31
2022-09-15T08:37:44.458Z,100472.47
2022-09-15T08:40:23.680Z,100479.66
2022-09-15T08:42:55.307Z,100480.09
2022-09-15T08:45:28.002Z,100484.78
2022-09-15T08:48:01.821Z,100488.66
2022-09-15T08:50:44.774Z,100488.97
2022-09-15T08:53:21.788Z,100493.75
2022-09-15T08:55:54.878Z,100502.19
2022-09-15T08:58:34.890Z,100496.38
2022-09-15T09:01:11.734Z,100502.50
2022-09-15T09:03:41.108Z,100500.44
2022-09-15T09:06:24.200Z,100501.69
2022-09-15T09:09:16.780Z,100504.06
2022-09-15T09:12:01.585Z,100504.03
2022-09-15T09:14:28.140Z,100506.50
2022-09-15T09:17:19.266Z,100514.38
2022-09-15T09:20:24.677Z,100509.94
2022-09-15T09:22:54.193Z,100515.88
2022-09-15T09:25:27.599Z,100513.94
2022-09-15T09:27:56.398Z,100500.66
2022-09-15T09:30:24.364Z,100488.31
2022-09-15T09:33:13.197Z,100492.44
2022-09-15T09:35:49.559Z,100489.25
2022-09-15T09:38:21.129Z,100488.69
2022-09-15T09:40:49.147Z,100492.91
2022-09-15T09:43:16.203Z,100481.69
2022-09-15T09:45:42.855Z,100486.63
2022-09-15T09:48:23.546Z,100485.69
2022-09-15T09:50:50.806Z,100485.38
2022-09-15T09:53:26.444Z,100484.91
2022-09-15T09:55:55.270Z,100489.59
2022-09-15T09:58:25.453Z,100489.25
2022-09-15T10:00:53.299Z,100488.41
2022-09-15T10:03:21.564Z,100484.94
2022-09-15T10:06:11.416Z,100487.00
2022-09-15T10:08:53.083Z,100484.97
2022-09-15T10:11:19.688Z,100493.38
2022-09-15T10:13:52.876Z,100506.63
2022-09-15T10:16:20.284Z,100520.44
2022-09-15T10:18:53.987Z,100511.22
2022-09-15T10:21:24.869Z,100505.75
2022-09-15T10:23:51.629Z,100511.41
2022-09-15T10:26:32.370Z,100515.78
2022-09-15T10:29:15.932Z,100511.50
2022-09-15T10:31:44.580Z,100499.81
2022-09-15T10:34:30.569Z,100503.31
2022-09-15T10:37:29.638Z,100494.44
2022-09-15T10:40:00.611Z,100500.25
2022-09-15T10:42:53.798Z,100495.72
2022-09-15T10:45:38.230Z,100497.81
2022-09-15T10:48:14.059Z,100510.28
2022-09-15T10:50:55.997Z,100506.97
2022-09-15T10:53:28.501Z,100510.84
2022-09-15T10:56:34.239Z,100505.16
2022-09-15T10:59:29.139Z,100493.13
2022-09-15T11:01:59.802Z,100491.06
2022-09-15T11:04:55.196Z,100498.28
2022-09-15T11:07:30.546Z,100500.09
2022-09-15T11:10:12.231Z,100491.78
2022-09-15T11:12:56.324Z,100496.34
2022-09-15T11:15:41.837Z,100498.41
2022-09-15T11:18:27.994Z,100497.81
2022-09-15T11:21:05.326Z,100502.41
2022-09-15T11:23:34.876Z,100497.22
2022-09-15T11:26:09.918Z,100501.50
2022-09-15T11:28:58.953Z,100507.31
2022-09-15T11:31:34.624Z,100510.75
2022-09-15T11:34:14.995Z,100513.69
2022-09-15T11:36:54.953Z,100518.53
2022-09-15T11:39:30.652Z,100524.22
2022-09-15T11:42:13.868Z,100517.94
2022-09-15T11:44:43.526Z,100524.22
2022-09-15T11:47:25.140Z,100522.38
2022-09-15T11:50:18.273Z,100522.25
2022-09-15T11:52:59.736Z,100521.22
2022-09-15T11:55:37.196Z,100507.84
2022-09-15T11:58:15.554Z,100504.34
2022-09-15T12:00:53.047Z,100505.72
2022-09-15T12:03:50.855Z,100500.22
2022-09-15T12:06:45.779Z,100501.94
2022-09-15T12:09:15.989Z,100500.44
2022-09-15T12:11:45.629Z,100493.78
2022-09-15T12:14:26.974Z,100495.13
2022-09-15T12:16:54.125Z,100493.66
2022-09-15T12:19:33.513Z,100495.25
2022-09-15T12:22:18.103Z,100486.78
2022-09-15T12:25:00.061Z,100491.50
2022-09-15T12:27:27.901Z,100494.22
2022-09-15T12:29:57.461Z,100488.97
2022-09-15T12:32:27.761Z,100486.22
2022-09-15T12:35:00.215Z,100489.91
2022-09-15T12:37:41.620Z,100493.19
2022-09-15T12:40:39.339Z,100482.16
2022-09-15T12:43:12.806Z,100487.50
2022-09-15T12:45:42.425Z,100490.78
2022-09-15T12:48:23.265Z,100494.94
2022-09-15T12:51:01.759Z,100483.38
2022-09-15T12:56:25.078Z,100492.03
2022-09-15T12:58:52.759Z,100493.16
2022-09-15T13:01:19.623Z,100504.63
2022-09-15T13:03:46.654Z,100510.28
2022-09-15T13:06:23.353Z,100522.19
2022-09-15T13:08:51.410Z,100536.22
2022-09-15T13:11:34.664Z,100520.19
2022-09-15T13:14:04.299Z,100527.22
2022-09-15T13:16:52.699Z,100523.91
2022-09-15T13:19:53.191Z,100518.41
2022-09-15T13:22:41.319Z,100518.81
2022-09-15T13:25:10.942Z,100511.53
2022-09-15T13:27:45.174Z,100516.09
2022-09-15T13:30:21.454Z,100514.84
2022-09-15T13:33:12.754Z,100508.22
2022-09-15T13:35:51.735Z,100513.59
2022-09-15T13:38:24.037Z,100515.88
2022-09-15T13:41:27.956Z,100499.66
2022-09-15T13:44:06.449Z,100501.72
2022-09-15T13:46:44.346Z,100502.28
2022-09-15T13:49:19.694Z,100495.91
2022-09-15T13:51:59.733Z,100490.84
2022-09-15T13:54:26.579Z,100493.84
2022-09-15T13:56:53.380Z,100482.13
2022-09-15T13:59:28.468Z,100492.22
2022-09-15T14:01:56.835Z,100478.34
2022-09-15T14:04:26.926Z,100488.00
2022-09-15T14:07:00.040Z,100493.38
2022-09-15T14:09:34.874Z,100499.31
2022-09-15T14:12:15.002Z,100510.63
2022-09-15T14:14:43.699Z,100508.44
2022-09-15T14:17:25.348Z,100521.00
2022-09-15T14:19:54.701Z,100515.72
2022-09-15T14:22:21.170Z,100517.41
2022-09-15T14:24:50.982Z,100527.16
2022-09-15T14:27:24.881Z,100522.81
2022-09-15T14:30:00.269Z,100529.50
2022-09-15T14:32:28.784Z,100516.94
2022-09-15T14:34:59.721Z,100521.19
2022-09-15T14:37:32.238Z,100518.72
2022-09-15T14:40:01.641Z,100521.84
2022-09-15T14:42:36.135Z,100513.66
2022-09-15T14:48:01.604Z,100505.41
2022-09-15T14:50:33.318Z,100504.28
2022-09-15T14:53:06.587Z,100502.50
2022-09-15T14:55:35.808Z,100513.81
2022-09-15T14:58:15.006Z,100508.47
2022-09-15T15:00:54.657Z,100521.25
2022-09-15T15:03:44.564Z,100527.53
2022-09-15T15:06:35.881Z,100532.25
2022-09-15T15:09:32.728Z,100525.38
2022-09-15T15:12:16.299Z,100528.91
2022-09-15T15:14:42.872Z,100531.66
2022-09-15T15:17:34.666Z,100527.41
2022-09-15T15:20:19.242Z,100540.50
2022-09-15T15:22:46.712Z,100548.94
2022-09-15T15:25:27.694Z,100542.19
2022-09-15T15:27:58.607Z,100548.03
2022-09-15T15:30:32.533Z,100529.38
2022-09-15T15:33:19.687Z,100539.50
2022-09-15T15:35:47.087Z,100541.25
2022-09-15T15:38:17.716Z,100524.84
2022-09-15T15:40:45.779Z,100529.59
2022-09-15T15:43:24.594Z,100534.78
2022-09-15T15:45:58.459Z,100528.19
2022-09-15T15:48:26.591Z,100530.75
2022-09-15T15:50:53.312Z,100525.63
2022-09-15T15:53:20.054Z,100529.56
2022-09-15T15:55:47.084Z,100521.38
2022-09-15T15:58:15.702Z,100527.13
2022-09-15T16:00:51.707Z,100525.78
2022-09-15T16:03:19.816Z,100527.59
2022-09-15T16:05:52.399Z,100533.09
2022-09-15T16:08:30.133Z,100535.22
2022-09-15T16:10:57.649Z,100540.91
2022-09-15T16:13:24.995Z,100540.56
2022-09-15T16:15:56.843Z,100536.78
2022-09-15T16:18:23.710Z,100541.69
2022-09-15T16:20:50.390Z,100535.56
2022-09-15T16:23:19.137Z,100537.03
2022-09-15T16:25:51.439Z,100540.16
2022-09-15T16:28:18.063Z,100538.19
2022-09-15T16:30:44.985Z,100535.81
2022-09-15T16:33:17.598Z,100531.78
2022-09-15T16:35:55.079Z,100531.56
2022-09-15T16:38:25.500Z,100532.56
2022-09-15T16:40:52.415Z,100535.06
2022-09-15T16:43:21.665Z,100534.69
2022-09-15T16:45:50.515Z,100535.94
2022-09-15T16:48:17.882Z,100540.81
2022-09-15T16:50:56.044Z,100540.44
2022-09-15T16:53:32.689Z,100546.16
2022-09-15T16:56:00.580Z,100549.78
2022-09-15T16:58:27.748Z,100552.41
2022-09-15T17:00:54.408Z,100554.06
2022-09-15T17:03:23.835Z,100557.53
2022-09-15T17:05:52.426Z,100555.19
2022-09-15T17:08:21.716Z,100556.34
2022-09-15T17:10:48.947Z,100558.56
2022-09-15T17:13:18.516Z,100566.44
2022-09-15T17:15:46.801Z,100573.34
2022-09-15T17:18:15.575Z,100572.78
2022-09-15T17:20:47.172Z,100565.16
2022-09-15T17:23:25.877Z,100568.78
2022-09-15T17:25:53.727Z,100566.66
2022-09-15T17:28:22.795Z,100565.91
2022-09-15T17:30:51.477Z,100558.09
2022-09-15T17:33:19.671Z,100571.22
2022-09-15T17:35:47.073Z,100562.19
2022-09-15T17:38:14.101Z,100571.06
2022-09-15T17:40:41.072Z,100571.56
2022-09-15T17:43:15.347Z,100565.72
2022-09-15T17:45:42.192Z,100565.94
2022-09-15T17:48:09.360Z,100564.53
2022-09-15T17:50:39.139Z,100571.81
2022-09-15T17:53:12.791Z,100568.78
2022-09-15T17:55:40.102Z,100571.63
2022-09-15T17:58:07.094Z,100572.03
2022-09-15T18:00:39.184Z,100577.47
2022-09-15T18:03:19.571Z,100575.09
2022-09-15T18:05:46.189Z,100579.72
2022-09-15T18:08:13.001Z,100575.50
2022-09-15T18:10:39.701Z,100572.50
2022-09-15T18:13:07.101Z,100568.66
2022-09-15T18:15:35.180Z,100573.94
2022-09-15T18:18:04.305Z,100577.97
2022-09-15T18:20:33.178Z,100578.00
2022-09-15T18:23:00.229Z,100582.25
2022-09-15T18:25:32.443Z,100589.50
2022-09-15T18:27:59.984Z,100584.50
2022-09-15T18:30:29.487Z,100588.75
2022-09-15T18:32:56.189Z,100589.75
2022-09-15T18:35:23.078Z,100592.00
2022-09-15T18:37:54.957Z,100594.19
2022-09-15T18:40:21.773Z,100596.59
2022-09-15T18:42:49.091Z,100599.22
2022-09-15T18:45:17.442Z,100606.44
2022-09-15T18:47:48.778Z,100604.22
2022-09-15T18:50:17.335Z,100613.28
2022-09-15T18:52:44.293Z,100607.06
2022-09-15T18:55:16.562Z,100599.44
2022-09-15T18:57:43.594Z,100609.06
2022-09-15T19:00:16.970Z,100614.47
2022-09-15T19:02:44.509Z,100616.69
2022-09-15T19:05:12.214Z,100624.53
2022-09-15T19:07:39.083Z,100622.31
2022-09-15T19:10:07.398Z,100625.34
2022-09-15T19:12:35.499Z,100624.53
2022-09-15T19:15:10.568Z,100627.34
2022-09-15T19:17:38.682Z,100624.34
2022-09-15T19:20:09.771Z,100612.06
2022-09-15T19:22:36.861Z,100626.13
2022-09-15T19:25:05.377Z,100624.72
2022-09-15T19:27:32.480Z,100626.13
2022-09-15T19:29:59.005Z,100626.13
2022-09-15T19:32:26.009Z,100628.16
2022-09-15T19:34:52.965Z,100634.56
2022-09-15T19:37:21.299Z,100627.97
2022-09-15T19:39:48.573Z,100633.38
2022-09-15T19:44:47.996Z,100640.22
2022-09-15T19:47:15.657Z,100639.03
2022-09-15T19:49:42.239Z,100637.78
2022-09-15T19:52:10.086Z,100636.97
2022-09-15T19:54:36.743Z,100635.78
2022-09-15T19:57:03.949Z,100639.19
2022-09-15T19:59:31.899Z,100638.00
2022-09-15T20:01:59.851Z,100636.59
2022-09-15T20:04:27.583Z,100630.53
2022-09-15T20:06:54.279Z,100635.97
2022-09-15T20:09:20.844Z,100636.78
2022-09-15T20:11:48.489Z,100639.41
2022-09-15T20:14:15.248Z,100642.03
2022-09-15T20:16:41.902Z,100646.63
2022-09-15T20:19:08.808Z,100636.19
2022-09-15T20:21:52.527Z,100639.19
2022-09-15T20:24:20.455Z,100639.78
2022-09-15T20:26:47.187Z,100633.31
2022-09-15T20:29:14.373Z,100635.16
2022-09-15T20:31:41.079Z,100643.16
2022-09-15T20:34:07.600Z,100641.75
2022-09-15T20:36:36.909Z,100645.59
2022-09-15T20:39:06.368Z,100651.81
2022-09-15T20:41:33.136Z,100656.03
2022-09-15T20:44:00.596Z,100651.41
2022-09-15T20:46:29.373Z,100655.00
2022-09-15T20:48:55.934Z,100657.59
2022-09-15T20:51:26.067Z,100651.38
2022-09-15T20:53:54.667Z,100647.97
2022-09-15T20:56:25.450Z,100655.00
2022-09-15T20:58:58.421Z,100650.97
2022-09-15T21:01:27.452Z,100647.75
2022-09-15T21:03:55.386Z,100644.09
2022-09-15T21:06:24.501Z,100642.09
2022-09-15T21:08:51.595Z,100646.09
2022-09-15T21:11:20.299Z,100648.69
2022-09-15T21:13:49.393Z,100649.06
2022-09-15T21:16:22.674Z,100658.28
2022-09-15T21:18:50.869Z,100661.72
2022-09-15T21:21:22.798Z,100665.88
2022-09-15T21:23:55.175Z,100666.19
2022-09-15T21:26:24.259Z,100665.19
2022-09-15T21:28:51.600Z,100662.13
2022-09-15T21:31:21.266Z,100656.31
2022-09-15T21:33:49.104Z,100663.31
2022-09-15T21:36:27.025Z,100668.13
2022-09-15T21:38:56.173Z,100663.28
2022-09-15T21:41:26.041Z,100668.72
2022-09-15T21:43:54.913Z,100670.13
2022-09-15T21:46:24.059Z,100665.28
2022-09-15T21:48:50.902Z,100666.84
2022-09-15T21:51:23.478Z,100661.22
2022-09-15T21:53:56.157Z,100667.81
2022-09-15T21:56:25.342Z,100667.16
2022-09-15T21:58:51.971Z,100671.34
2022-09-15T22:01:23.822Z,100674.09
2022-09-15T22:03:53.223Z,100682.50
2022-09-15T22:06:22.268Z,100669.66
2022-09-15T22:08:49.915Z,100675.69
2022-09-15T22:11:16.527Z,100679.47
2022-09-15T22:13:44.758Z,100678.66
2022-09-15T22:16:22.974Z,100676.50
2022-09-15T22:18:51.036Z,100678.09
2022-09-15T22:21:25.878Z,100678.09
2022-09-15T22:23:55.201Z,100678.50
2022-09-15T22:26:26.252Z,100679.28
2022-09-15T22:28:53.279Z,100677.44
2022-09-15T22:31:21.170Z,100675.03
2022-09-15T22:33:48.013Z,100680.41
2022-09-15T22:36:17.427Z,100680.41
2022-09-15T22:38:45.145Z,100678.00
2022-09-15T22:41:14.619Z,100682.59
2022-09-15T22:43:42.945Z,100682.00
2022-09-15T22:46:12.315Z,100683.16
2022-09-15T22:48:43.279Z,100672.53
2022-09-15T22:51:11.027Z,100674.16
2022-09-15T22:53:37.684Z,100669.88
2022-09-15T22:56:08.447Z,100665.09
2022-09-15T22:58:36.355Z,100667.84
2022-09-15T23:01:09.615Z,100666.84
2022-09-15T23:03:37.668Z,100664.78
2022-09-15T23:06:05.444Z,100661.41
2022-09-15T23:08:33.234Z,100663.00
2022-09-15T23:11:08.798Z,100663.81
2022-09-15T23:13:35.788Z,100663.81
2022-09-15T23:16:02.459Z,100663.81
2022-09-15T23:18:29.751Z,100666.41
2022-09-15T23:21:05.192Z,100658.59
2022-09-15T23:23:34.272Z,100653.13
2022-09-15T23:26:01.419Z,100654.56
2022-09-15T23:28:30.169Z,100653.38
2022-09-15T23:30:57.818Z,100653.19
2022-09-15T23:33:28.950Z,100652.41
2022-09-15T23:35:55.983Z,100658.22
2022-09-15T23:38:22.707Z,100652.41
2022-09-15T23:40:50.584Z,100647.81
2022-09-15T23:43:18.051Z,100646.81
2022-09-15T23:45:45.814Z,100647.00
2022-09-15T23:48:13.302Z,100652.81
2022-09-15T23:50:40.964Z,100651.84
2022-09-15T23:53:08.315Z,100651.19
2022-09-15T23:55:35.402Z,100649.81
2022-09-15T23:58:02.476Z,100651.59
